Terminal Aerodrome Forecast
Issued by NWS Burlington, VT

Home | Current Version | Previous Version | Text Only | Print | Product List | Glossary On
Versions: 1 2 3 4 5 6 7 8 9 10 11 12 13 14
988
FTUS41 KBTV 282321
TAFBTV
TAF
KBTV 282321Z 2900/2924 27005KT P6SM FEW200
     FM290600 VRB03KT P6SM BKN110
     FM291700 25009G16KT P6SM SCT070
     FM291900 29011G21KT P6SM SCT070
     FM292100 33012G21KT P6SM SCT080=

USA.gov is the U.S. government's official web portal to all federal, state and local government web resources and services.